AAL2949 KPHL-TJSJ
Flight info
| Callsign | AAL2949 |
|---|---|
| Flight time | 3h 19m |
| Altitude | 35000 |
| Route | DCT OOD DCT TEBEE DCT HAYDO DCT SIE B24 AZEZU/M080F350 DCT RESQU DCT SKPPR L455 KINCH/N0473F350 L455 LENNT M423 PLING RTE7 SAALR DCT |
| Aircraft | B738/M-SDE2E3FGHIRWXY/LB1 |
Departure
| Time | 2026-05-04 22:53 |
|---|---|
| Airport | Philadelphia International Airport (KPHL) |
Arrival
| Time | 2026-05-05 02:12 |
|---|---|
| Airport | Luis Munoz Marin International Airport (TJSJ) |
| Time | Latitude | Longitude | Altitude | Speed | Heading |
|---|---|---|---|---|---|
| 2026-05-04 22:42 | 39.87499 | -75.23869 | 24 ft | 0 kts | 49° |
| 2026-05-04 22:45 | 39.87498 | -75.23871 | 24 ft | 2 kts | 50° |
| 2026-05-04 22:45 | 39.87487 | -75.23928 | 28 ft | 4 kts | 134° |
| 2026-05-04 22:45 | 39.87498 | -75.23938 | 30 ft | 1 kts | 158° |
| 2026-05-04 22:46 | 39.87499 | -75.23939 | 30 ft | 0 kts | 158° |
| 2026-05-04 22:49 | 39.87498 | -75.23938 | 30 ft | 2 kts | 158° |
| 2026-05-04 22:49 | 39.87456 | -75.23916 | 28 ft | 11 kts | 158° |
| 2026-05-04 22:49 | 39.87360 | -75.23872 | 26 ft | 18 kts | 163° |
| 2026-05-04 22:49 | 39.87254 | -75.23802 | 27 ft | 17 kts | 160° |
| 2026-05-04 22:50 | 39.87140 | -75.23768 | 25 ft | 16 kts | 166° |
| 2026-05-04 22:50 | 39.87101 | -75.23666 | 24 ft | 16 kts | 60° |
| 2026-05-04 22:50 | 39.87133 | -75.23532 | 28 ft | 15 kts | 75° |
| 2026-05-04 22:50 | 39.87134 | -75.23459 | 24 ft | 4 kts | 164° |
| 2026-05-04 22:51 | 39.87108 | -75.23449 | 24 ft | 4 kts | 165° |
| 2026-05-04 22:51 | 39.87079 | -75.23444 | 27 ft | 5 kts | 172° |
| 2026-05-04 22:51 | 39.87028 | -75.23435 | 28 ft | 10 kts | 172° |
| 2026-05-04 22:51 | 39.86949 | -75.23410 | 25 ft | 13 kts | 163° |
| 2026-05-04 22:52 | 39.86914 | -75.23411 | 24 ft | 4 kts | 205° |
| 2026-05-04 22:52 | 39.86895 | -75.23446 | 27 ft | 11 kts | 253° |
| 2026-05-04 22:52 | 39.86814 | -75.23846 | 24 ft | 81 kts | 255° |
| 2026-05-04 22:52 | 39.86618 | -75.24829 | 25 ft | 141 kts | 256° |
| 2026-05-04 22:53 | 39.86337 | -75.26213 | 354 ft | 164 kts | 248° |
| 2026-05-04 22:53 | 39.85928 | -75.27638 | 945 ft | 173 kts | 246° |
| 2026-05-04 22:53 | 39.85269 | -75.28889 | 1758 ft | 173 kts | 212° |
| 2026-05-04 22:53 | 39.84041 | -75.29351 | 2033 ft | 198 kts | 187° |
| 2026-05-04 22:54 | 39.82681 | -75.29404 | 2752 ft | 194 kts | 179° |
| 2026-05-04 22:54 | 39.81293 | -75.29385 | 3145 ft | 211 kts | 185° |
| 2026-05-04 22:54 | 39.79733 | -75.29471 | 3342 ft | 238 kts | 186° |
| 2026-05-04 22:54 | 39.78018 | -75.29574 | 3846 ft | 252 kts | 185° |
| 2026-05-04 22:55 | 39.76243 | -75.29673 | 4573 ft | 259 kts | 186° |
| 2026-05-04 22:55 | 39.74444 | -75.29768 | 5381 ft | 261 kts | 186° |
| 2026-05-04 22:55 | 39.72601 | -75.29863 | 6054 ft | 268 kts | 186° |
| 2026-05-04 22:55 | 39.70715 | -75.29958 | 6721 ft | 274 kts | 187° |
| 2026-05-04 22:56 | 39.68786 | -75.30052 | 7412 ft | 279 kts | 186° |
| 2026-05-04 22:56 | 39.66844 | -75.30146 | 8143 ft | 282 kts | 187° |
| 2026-05-04 22:56 | 39.64861 | -75.30242 | 8816 ft | 287 kts | 187° |
| 2026-05-04 22:56 | 39.62879 | -75.30376 | 9512 ft | 290 kts | 191° |
| 2026-05-04 22:57 | 39.60872 | -75.30717 | 10197 ft | 293 kts | 193° |
| 2026-05-04 22:57 | 39.58787 | -75.31134 | 10473 ft | 312 kts | 193° |
| 2026-05-04 22:57 | 39.56556 | -75.31575 | 10649 ft | 334 kts | 193° |
| 2026-05-04 22:57 | 39.54183 | -75.32023 | 10808 ft | 355 kts | 192° |
| 2026-05-04 22:58 | 39.51676 | -75.32482 | 10963 ft | 373 kts | 192° |
| 2026-05-04 22:58 | 39.49060 | -75.32954 | 11364 ft | 383 kts | 192° |
| 2026-05-04 22:58 | 39.46412 | -75.33432 | 12011 ft | 385 kts | 192° |
| 2026-05-04 22:58 | 39.43796 | -75.33906 | 12709 ft | 385 kts | 192° |
| 2026-05-04 22:59 | 39.41101 | -75.34396 | 13361 ft | 388 kts | 192° |
| 2026-05-04 22:59 | 39.38447 | -75.34879 | 13941 ft | 391 kts | 192° |
| 2026-05-04 22:59 | 39.35745 | -75.35371 | 14461 ft | 394 kts | 192° |
| 2026-05-04 22:59 | 39.33008 | -75.35869 | 14950 ft | 398 kts | 192° |
| 2026-05-04 23:00 | 39.30239 | -75.36373 | 15422 ft | 403 kts | 192° |
| 2026-05-04 23:00 | 39.27439 | -75.36837 | 15901 ft | 409 kts | 187° |
| 2026-05-04 23:00 | 39.25529 | -75.36712 | 16192 ft | 419 kts | 172° |
| 2026-05-04 23:00 | 39.22782 | -75.35354 | 16719 ft | 431 kts | 151° |
| 2026-05-04 23:01 | 39.20497 | -75.32818 | 17241 ft | 440 kts | 130° |
| 2026-05-04 23:01 | 39.18955 | -75.29395 | 17726 ft | 446 kts | 109° |
| 2026-05-04 23:01 | 39.18162 | -75.25527 | 18234 ft | 448 kts | 103° |
| 2026-05-04 23:01 | 39.17464 | -75.21599 | 18650 ft | 451 kts | 102° |
| 2026-05-04 23:02 | 39.16766 | -75.17646 | 19079 ft | 455 kts | 102° |
| 2026-05-04 23:02 | 39.16044 | -75.13649 | 19532 ft | 457 kts | 103° |
| 2026-05-04 23:02 | 39.15313 | -75.09712 | 19955 ft | 459 kts | 103° |
| 2026-05-04 23:02 | 39.14552 | -75.05695 | 20381 ft | 462 kts | 103° |
| 2026-05-04 23:03 | 39.13781 | -75.01666 | 20800 ft | 464 kts | 103° |
| 2026-05-04 23:03 | 39.13003 | -74.97625 | 21233 ft | 466 kts | 103° |
| 2026-05-04 23:03 | 39.12220 | -74.93564 | 21624 ft | 469 kts | 103° |
| 2026-05-04 23:03 | 39.11431 | -74.89473 | 22004 ft | 472 kts | 103° |
| 2026-05-04 23:04 | 39.10636 | -74.85354 | 22384 ft | 474 kts | 103° |
| 2026-05-04 23:04 | 39.09748 | -74.81251 | 22749 ft | 477 kts | 109° |
| 2026-05-04 23:04 | 39.08414 | -74.77326 | 23105 ft | 480 kts | 119° |
| 2026-05-04 23:04 | 39.06657 | -74.73673 | 23483 ft | 481 kts | 123° |
| 2026-05-04 23:05 | 39.04817 | -74.70044 | 23791 ft | 484 kts | 123° |
| 2026-05-04 23:05 | 39.02999 | -74.66460 | 24092 ft | 485 kts | 123° |
| 2026-05-04 23:05 | 39.01165 | -74.62808 | 24417 ft | 487 kts | 123° |
| 2026-05-04 23:05 | 38.99337 | -74.59130 | 24730 ft | 488 kts | 123° |
| 2026-05-04 23:06 | 38.97514 | -74.55440 | 25041 ft | 489 kts | 123° |
| 2026-05-04 23:06 | 38.95691 | -74.51740 | 25327 ft | 491 kts | 122° |
| 2026-05-04 23:06 | 38.93852 | -74.48009 | 25615 ft | 493 kts | 123° |
| 2026-05-04 23:06 | 38.92015 | -74.44287 | 25892 ft | 494 kts | 123° |
| 2026-05-04 23:07 | 38.90184 | -74.40588 | 26151 ft | 496 kts | 123° |
| 2026-05-04 23:07 | 38.88330 | -74.36842 | 26426 ft | 497 kts | 122° |
| 2026-05-04 23:07 | 38.86490 | -74.33076 | 26653 ft | 500 kts | 122° |
| 2026-05-04 23:07 | 38.84637 | -74.29285 | 26829 ft | 503 kts | 122° |
| 2026-05-04 23:08 | 38.82768 | -74.25477 | 27137 ft | 503 kts | 122° |
| 2026-05-04 23:08 | 38.80903 | -74.21684 | 27587 ft | 500 kts | 122° |
| 2026-05-04 23:08 | 38.79055 | -74.17933 | 28061 ft | 496 kts | 122° |
| 2026-05-04 23:08 | 38.77204 | -74.14194 | 28449 ft | 495 kts | 123° |
| 2026-05-04 23:09 | 38.75346 | -74.10489 | 28767 ft | 495 kts | 123° |
| 2026-05-04 23:09 | 38.73480 | -74.06793 | 29113 ft | 495 kts | 123° |
| 2026-05-04 23:09 | 38.71615 | -74.03097 | 29495 ft | 493 kts | 123° |
| 2026-05-04 23:09 | 38.69754 | -73.99407 | 29892 ft | 491 kts | 123° |
| 2026-05-04 23:10 | 38.67902 | -73.95723 | 30232 ft | 489 kts | 123° |
| 2026-05-04 23:10 | 38.66089 | -73.92093 | 30517 ft | 489 kts | 123° |
| 2026-05-04 23:10 | 38.64259 | -73.88420 | 30734 ft | 490 kts | 123° |
| 2026-05-04 23:10 | 38.62400 | -73.84695 | 30970 ft | 490 kts | 123° |
| 2026-05-04 23:11 | 38.60589 | -73.81078 | 31249 ft | 489 kts | 123° |
| 2026-05-04 23:11 | 38.58746 | -73.77413 | 31532 ft | 489 kts | 124° |
| 2026-05-04 23:11 | 38.56902 | -73.73765 | 31775 ft | 489 kts | 124° |
| 2026-05-04 23:11 | 38.55055 | -73.70117 | 32014 ft | 489 kts | 124° |
| 2026-05-04 23:12 | 38.53210 | -73.66473 | 32262 ft | 488 kts | 124° |
| 2026-05-04 23:12 | 38.51364 | -73.62830 | 32495 ft | 488 kts | 124° |
| 2026-05-04 23:12 | 38.49497 | -73.59195 | 32640 ft | 490 kts | 125° |
| 2026-05-04 23:12 | 38.47600 | -73.55566 | 32855 ft | 490 kts | 126° |
| 2026-05-04 23:13 | 38.45712 | -73.51963 | 33137 ft | 489 kts | 126° |
| 2026-05-04 23:13 | 38.43820 | -73.48344 | 33417 ft | 488 kts | 126° |
| 2026-05-04 23:13 | 38.41984 | -73.44772 | 33618 ft | 489 kts | 125° |
| 2026-05-04 23:13 | 38.40120 | -73.41065 | 33822 ft | 489 kts | 124° |
| 2026-05-04 23:14 | 38.38295 | -73.37406 | 34024 ft | 489 kts | 124° |
| 2026-05-04 23:14 | 38.36496 | -73.33799 | 34181 ft | 490 kts | 125° |
| 2026-05-04 23:14 | 38.34660 | -73.30131 | 34304 ft | 491 kts | 125° |
| 2026-05-04 23:14 | 38.32814 | -73.26457 | 34383 ft | 493 kts | 126° |
| 2026-05-04 23:15 | 38.29091 | -73.19081 | 34667 ft | 495 kts | 126° |
| 2026-05-04 23:15 | 38.27229 | -73.15400 | 34877 ft | 493 kts | 126° |
| 2026-05-04 23:15 | 38.25366 | -73.11721 | 35053 ft | 493 kts | 126° |
| 2026-05-04 23:16 | 38.21630 | -73.04353 | 35131 ft | 497 kts | 126° |
| 2026-05-04 23:16 | 38.17884 | -72.96982 | 35136 ft | 494 kts | 126° |
| 2026-05-04 23:17 | 38.14100 | -72.89708 | 35134 ft | 492 kts | 127° |
| 2026-05-04 23:17 | 38.10312 | -72.82470 | 35151 ft | 491 kts | 127° |
| 2026-05-04 23:18 | 38.06589 | -72.75260 | 35151 ft | 492 kts | 127° |
| 2026-05-04 23:18 | 38.02837 | -72.67983 | 35148 ft | 493 kts | 128° |
| 2026-05-04 23:19 | 37.99072 | -72.60681 | 35164 ft | 496 kts | 127° |
| 2026-05-04 23:19 | 37.95309 | -72.53318 | 35160 ft | 499 kts | 127° |
| 2026-05-04 23:20 | 37.91519 | -72.45915 | 35166 ft | 502 kts | 127° |
| 2026-05-04 23:20 | 37.87701 | -72.38483 | 35168 ft | 505 kts | 127° |
| 2026-05-04 23:21 | 37.84232 | -72.30700 | 35173 ft | 509 kts | 121° |
| 2026-05-04 23:21 | 37.80969 | -72.22721 | 35155 ft | 511 kts | 121° |
| 2026-05-04 23:22 | 37.77685 | -72.14748 | 35176 ft | 511 kts | 122° |
| 2026-05-04 23:22 | 37.74363 | -72.06829 | 35185 ft | 511 kts | 122° |
| 2026-05-04 23:23 | 37.71032 | -71.98953 | 35165 ft | 510 kts | 123° |
| 2026-05-04 23:23 | 37.67678 | -71.91040 | 35184 ft | 511 kts | 123° |
| 2026-05-04 23:24 | 37.64316 | -71.83118 | 35192 ft | 512 kts | 123° |
| 2026-05-04 23:24 | 37.60965 | -71.75239 | 35197 ft | 513 kts | 123° |
| 2026-05-04 23:25 | 37.57580 | -71.67300 | 35205 ft | 515 kts | 123° |
| 2026-05-04 23:25 | 37.54173 | -71.59327 | 35203 ft | 516 kts | 123° |
| 2026-05-04 23:26 | 37.50762 | -71.51373 | 35199 ft | 516 kts | 125° |
| 2026-05-04 23:26 | 37.48760 | -71.47655 | 35200 ft | 506 kts | 138° |
| 2026-05-04 23:26 | 37.46302 | -71.44566 | 35217 ft | 494 kts | 148° |
| 2026-05-04 23:27 | 37.43587 | -71.42080 | 35219 ft | 483 kts | 158° |
| 2026-05-04 23:27 | 37.40625 | -71.40200 | 35224 ft | 474 kts | 165° |
| 2026-05-04 23:27 | 37.34604 | -71.36751 | 35212 ft | 475 kts | 165° |
| 2026-05-04 23:28 | 37.28584 | -71.33256 | 35213 ft | 478 kts | 165° |
| 2026-05-04 23:28 | 37.22542 | -71.29701 | 35214 ft | 480 kts | 165° |
| 2026-05-04 23:29 | 37.16492 | -71.26128 | 35232 ft | 481 kts | 164° |
| 2026-05-04 23:29 | 37.10435 | -71.22555 | 35221 ft | 480 kts | 164° |
| 2026-05-04 23:30 | 37.04380 | -71.18992 | 35222 ft | 480 kts | 165° |
| 2026-05-04 23:30 | 36.98377 | -71.15468 | 35227 ft | 479 kts | 165° |
| 2026-05-04 23:31 | 36.92335 | -71.11929 | 35238 ft | 478 kts | 165° |
| 2026-05-04 23:31 | 36.86319 | -71.08411 | 35239 ft | 477 kts | 165° |
| 2026-05-04 23:32 | 36.80316 | -71.04906 | 35244 ft | 476 kts | 165° |
| 2026-05-04 23:32 | 36.74352 | -71.01431 | 35247 ft | 475 kts | 165° |
| 2026-05-04 23:33 | 36.68363 | -70.97947 | 35251 ft | 474 kts | 165° |
| 2026-05-04 23:33 | 36.62385 | -70.94476 | 35212 ft | 474 kts | 165° |
| 2026-05-04 23:34 | 36.56422 | -70.91017 | 35238 ft | 472 kts | 165° |
| 2026-05-04 23:34 | 36.50473 | -70.87573 | 35246 ft | 470 kts | 165° |
| 2026-05-04 23:35 | 36.44581 | -70.84168 | 35252 ft | 468 kts | 165° |
| 2026-05-04 23:35 | 36.38685 | -70.80768 | 35265 ft | 466 kts | 165° |
| 2026-05-04 23:36 | 36.32806 | -70.77383 | 35257 ft | 464 kts | 165° |
| 2026-05-04 23:36 | 36.26955 | -70.74019 | 35267 ft | 462 kts | 165° |
| 2026-05-04 23:37 | 36.21161 | -70.70694 | 35271 ft | 461 kts | 165° |
| 2026-05-04 23:37 | 36.15348 | -70.67364 | 35272 ft | 460 kts | 165° |
| 2026-05-04 23:38 | 36.09540 | -70.64042 | 35257 ft | 459 kts | 165° |
| 2026-05-04 23:38 | 36.03749 | -70.60734 | 35266 ft | 458 kts | 165° |
| 2026-05-04 23:39 | 35.97963 | -70.57435 | 35277 ft | 458 kts | 165° |
| 2026-05-04 23:39 | 35.92179 | -70.54143 | 35279 ft | 458 kts | 165° |
| 2026-05-04 23:40 | 35.86384 | -70.50848 | 35277 ft | 458 kts | 165° |
| 2026-05-04 23:40 | 35.80608 | -70.47570 | 35194 ft | 459 kts | 165° |
| 2026-05-04 23:41 | 35.74763 | -70.44510 | 35187 ft | 448 kts | 174° |
| 2026-05-04 23:41 | 35.68750 | -70.42864 | 35194 ft | 441 kts | 178° |
| 2026-05-04 23:42 | 35.62733 | -70.41341 | 35195 ft | 441 kts | 178° |
| 2026-05-04 23:42 | 35.56719 | -70.39782 | 35190 ft | 441 kts | 177° |
| 2026-05-04 23:43 | 35.50716 | -70.38197 | 35192 ft | 441 kts | 177° |
| 2026-05-04 23:43 | 35.44755 | -70.36615 | 35196 ft | 441 kts | 177° |
| 2026-05-04 23:44 | 35.38755 | -70.35024 | 35198 ft | 441 kts | 177° |
| 2026-05-04 23:44 | 35.32741 | -70.33432 | 35184 ft | 440 kts | 177° |
| 2026-05-04 23:45 | 35.27767 | -70.32117 | 35190 ft | 441 kts | 177° |
| 2026-05-04 23:45 | 35.21768 | -70.30535 | 35202 ft | 441 kts | 177° |
| 2026-05-04 23:46 | 35.15758 | -70.28952 | 35198 ft | 441 kts | 177° |
| 2026-05-04 23:46 | 35.09752 | -70.27372 | 35169 ft | 441 kts | 177° |
| 2026-05-04 23:47 | 35.03779 | -70.25803 | 35194 ft | 441 kts | 177° |
| 2026-05-04 23:47 | 34.97778 | -70.24229 | 35204 ft | 441 kts | 177° |
| 2026-05-04 23:48 | 34.91775 | -70.22657 | 35204 ft | 441 kts | 177° |
| 2026-05-04 23:48 | 34.85770 | -70.21087 | 35204 ft | 441 kts | 177° |
| 2026-05-04 23:49 | 34.79783 | -70.19522 | 35190 ft | 438 kts | 177° |
| 2026-05-04 23:49 | 34.73867 | -70.17975 | 35199 ft | 433 kts | 177° |
| 2026-05-04 23:50 | 34.68025 | -70.16456 | 35205 ft | 431 kts | 177° |
| 2026-05-04 23:50 | 34.62172 | -70.14928 | 35208 ft | 429 kts | 177° |
| 2026-05-04 23:51 | 34.56330 | -70.13418 | 35193 ft | 429 kts | 177° |
| 2026-05-04 23:51 | 34.50480 | -70.11906 | 35204 ft | 429 kts | 177° |
| 2026-05-04 23:52 | 34.44622 | -70.10385 | 35213 ft | 431 kts | 177° |
| 2026-05-04 23:52 | 34.38746 | -70.08864 | 35209 ft | 432 kts | 177° |
| 2026-05-04 23:53 | 34.32878 | -70.07350 | 35209 ft | 434 kts | 177° |
| 2026-05-04 23:53 | 34.26956 | -70.05824 | 35207 ft | 435 kts | 177° |
| 2026-05-04 23:54 | 34.21018 | -70.04296 | 35214 ft | 436 kts | 177° |
| 2026-05-04 23:54 | 34.15070 | -70.02766 | 35212 ft | 437 kts | 177° |
| 2026-05-04 23:55 | 34.09118 | -70.01238 | 35206 ft | 437 kts | 177° |
| 2026-05-04 23:56 | 34.00225 | -69.98959 | 35201 ft | 435 kts | 177° |
| 2026-05-04 23:56 | 33.94300 | -69.97444 | 35210 ft | 434 kts | 177° |
| 2026-05-04 23:57 | 33.88386 | -69.95935 | 35210 ft | 434 kts | 177° |
| 2026-05-04 23:57 | 33.82525 | -69.94441 | 35210 ft | 433 kts | 177° |
| 2026-05-04 23:58 | 33.76634 | -69.92941 | 35198 ft | 432 kts | 178° |
| 2026-05-04 23:58 | 33.70746 | -69.91445 | 35210 ft | 432 kts | 178° |
| 2026-05-04 23:59 | 33.64855 | -69.89950 | 35209 ft | 432 kts | 178° |
| 2026-05-04 23:59 | 33.58972 | -69.88462 | 35210 ft | 432 kts | 178° |
| 2026-05-05 00:00 | 33.53092 | -69.86975 | 35196 ft | 431 kts | 178° |
| 2026-05-05 00:00 | 33.47213 | -69.85485 | 35205 ft | 431 kts | 178° |
| 2026-05-05 00:01 | 33.41338 | -69.84001 | 35207 ft | 431 kts | 178° |
| 2026-05-05 00:01 | 33.35468 | -69.82524 | 35204 ft | 431 kts | 178° |
| 2026-05-05 00:02 | 33.29593 | -69.81045 | 35156 ft | 431 kts | 178° |
| 2026-05-05 00:02 | 33.23722 | -69.79568 | 35194 ft | 431 kts | 178° |
| 2026-05-05 00:03 | 33.17841 | -69.78094 | 35204 ft | 432 kts | 178° |
| 2026-05-05 00:03 | 33.11955 | -69.76621 | 35196 ft | 432 kts | 178° |
| 2026-05-05 00:04 | 33.06059 | -69.75148 | 35196 ft | 433 kts | 178° |
| 2026-05-05 00:04 | 33.00155 | -69.73675 | 35189 ft | 433 kts | 178° |
| 2026-05-05 00:05 | 32.94284 | -69.72212 | 35199 ft | 434 kts | 178° |
| 2026-05-05 00:05 | 32.88367 | -69.70739 | 35196 ft | 435 kts | 178° |
| 2026-05-05 00:06 | 32.82440 | -69.69267 | 35196 ft | 435 kts | 178° |
| 2026-05-05 00:06 | 32.76503 | -69.67793 | 35143 ft | 436 kts | 178° |
| 2026-05-05 00:07 | 32.70567 | -69.66321 | 35184 ft | 436 kts | 178° |
| 2026-05-05 00:07 | 32.64627 | -69.64851 | 35201 ft | 436 kts | 178° |
| 2026-05-05 00:08 | 32.58666 | -69.63379 | 35192 ft | 437 kts | 178° |
| 2026-05-05 00:08 | 32.52745 | -69.61917 | 35193 ft | 437 kts | 178° |
| 2026-05-05 00:09 | 32.46785 | -69.60448 | 35187 ft | 437 kts | 178° |
| 2026-05-05 00:09 | 32.40813 | -69.58985 | 35191 ft | 437 kts | 178° |
| 2026-05-05 00:10 | 32.34858 | -69.57516 | 35188 ft | 437 kts | 178° |
| 2026-05-05 00:10 | 32.28896 | -69.56049 | 35191 ft | 437 kts | 178° |
| 2026-05-05 00:11 | 32.22936 | -69.54589 | 35153 ft | 437 kts | 177° |
| 2026-05-05 00:11 | 32.17025 | -69.53142 | 35177 ft | 436 kts | 177° |
| 2026-05-05 00:12 | 32.11096 | -69.51683 | 35170 ft | 433 kts | 177° |
| 2026-05-05 00:12 | 32.05217 | -69.50248 | 35178 ft | 430 kts | 177° |
| 2026-05-05 00:13 | 31.99369 | -69.48825 | 35179 ft | 427 kts | 177° |
| 2026-05-05 00:13 | 31.93592 | -69.47420 | 35175 ft | 425 kts | 177° |
| 2026-05-05 00:14 | 31.87791 | -69.46011 | 35179 ft | 426 kts | 177° |
| 2026-05-05 00:14 | 31.81967 | -69.44598 | 35188 ft | 428 kts | 177° |
| 2026-05-05 00:15 | 31.76120 | -69.43181 | 35191 ft | 430 kts | 177° |
| 2026-05-05 00:15 | 31.70248 | -69.41759 | 35197 ft | 432 kts | 177° |
| 2026-05-05 00:16 | 31.64382 | -69.40339 | 35180 ft | 434 kts | 177° |
| 2026-05-05 00:16 | 31.58460 | -69.38907 | 35174 ft | 435 kts | 177° |
| 2026-05-05 00:17 | 31.52524 | -69.37474 | 35180 ft | 435 kts | 177° |
| 2026-05-05 00:17 | 31.46592 | -69.36043 | 35168 ft | 435 kts | 177° |
| 2026-05-05 00:18 | 31.40661 | -69.34615 | 35164 ft | 435 kts | 176° |
| 2026-05-05 00:18 | 31.34734 | -69.33190 | 35168 ft | 434 kts | 176° |
| 2026-05-05 00:19 | 31.28811 | -69.31768 | 35167 ft | 434 kts | 176° |
| 2026-05-05 00:19 | 31.22898 | -69.30350 | 35165 ft | 434 kts | 177° |
| 2026-05-05 00:20 | 31.16980 | -69.28933 | 35165 ft | 434 kts | 177° |
| 2026-05-05 00:20 | 31.11069 | -69.27519 | 35154 ft | 433 kts | 176° |
| 2026-05-05 00:21 | 31.05155 | -69.26108 | 35162 ft | 433 kts | 176° |
| 2026-05-05 00:21 | 30.99289 | -69.24709 | 35155 ft | 433 kts | 176° |
| 2026-05-05 00:22 | 30.93367 | -69.23299 | 35156 ft | 434 kts | 176° |
| 2026-05-05 00:22 | 30.87446 | -69.21889 | 35134 ft | 434 kts | 177° |
| 2026-05-05 00:23 | 30.81524 | -69.20478 | 35150 ft | 434 kts | 177° |
| 2026-05-05 00:23 | 30.75593 | -69.19068 | 35125 ft | 435 kts | 177° |
| 2026-05-05 00:24 | 30.69667 | -69.17661 | 35142 ft | 433 kts | 177° |
| 2026-05-05 00:24 | 30.63806 | -69.16272 | 35141 ft | 432 kts | 177° |
| 2026-05-05 00:25 | 30.57922 | -69.14879 | 35138 ft | 431 kts | 177° |
| 2026-05-05 00:25 | 30.52039 | -69.13489 | 35141 ft | 430 kts | 177° |
| 2026-05-05 00:26 | 30.46168 | -69.12104 | 35134 ft | 430 kts | 177° |
| 2026-05-05 00:26 | 30.40345 | -69.10732 | 35134 ft | 430 kts | 177° |
| 2026-05-05 00:27 | 30.34481 | -69.09351 | 35098 ft | 430 kts | 177° |
| 2026-05-05 00:27 | 30.28620 | -69.07973 | 35121 ft | 430 kts | 177° |
| 2026-05-05 00:28 | 30.22753 | -69.06596 | 35126 ft | 431 kts | 177° |
| 2026-05-05 00:28 | 30.17855 | -69.05447 | 35126 ft | 431 kts | 177° |
| 2026-05-05 00:29 | 30.10997 | -69.03840 | 35123 ft | 432 kts | 177° |
| 2026-05-05 00:29 | 30.06052 | -69.02683 | 35098 ft | 433 kts | 177° |
| 2026-05-05 00:30 | 30.00183 | -69.01310 | 35112 ft | 433 kts | 177° |
| 2026-05-05 00:30 | 29.94267 | -68.99929 | 35120 ft | 434 kts | 177° |
| 2026-05-05 00:31 | 29.88347 | -68.98548 | 35115 ft | 434 kts | 177° |
| 2026-05-05 00:31 | 29.82419 | -68.97167 | 35115 ft | 434 kts | 177° |
| 2026-05-05 00:32 | 29.76490 | -68.95787 | 35089 ft | 434 kts | 177° |
| 2026-05-05 00:32 | 29.70557 | -68.94408 | 35101 ft | 434 kts | 177° |
| 2026-05-05 00:33 | 29.64671 | -68.93042 | 35099 ft | 434 kts | 177° |
| 2026-05-05 00:33 | 29.58752 | -68.91671 | 35112 ft | 434 kts | 177° |
| 2026-05-05 00:34 | 29.52825 | -68.90298 | 35105 ft | 434 kts | 177° |
| 2026-05-05 00:34 | 29.46903 | -68.88929 | 35095 ft | 434 kts | 177° |
| 2026-05-05 00:35 | 29.40979 | -68.87560 | 35097 ft | 434 kts | 177° |
| 2026-05-05 00:35 | 29.35056 | -68.86194 | 35099 ft | 434 kts | 177° |
| 2026-05-05 00:36 | 29.29144 | -68.84831 | 35085 ft | 433 kts | 177° |
| 2026-05-05 00:36 | 29.23273 | -68.83480 | 35095 ft | 432 kts | 177° |
| 2026-05-05 00:37 | 29.17375 | -68.82124 | 35078 ft | 432 kts | 177° |
| 2026-05-05 00:37 | 29.11476 | -68.80770 | 35098 ft | 431 kts | 177° |
| 2026-05-05 00:38 | 29.05589 | -68.79421 | 35100 ft | 432 kts | 177° |
| 2026-05-05 00:38 | 28.99688 | -68.78070 | 35093 ft | 432 kts | 177° |
| 2026-05-05 00:39 | 28.93792 | -68.76721 | 35081 ft | 432 kts | 177° |
| 2026-05-05 00:39 | 28.87926 | -68.75382 | 35086 ft | 432 kts | 177° |
| 2026-05-05 00:40 | 28.82015 | -68.74032 | 35086 ft | 433 kts | 177° |
| 2026-05-05 00:40 | 28.76107 | -68.72681 | 35080 ft | 433 kts | 177° |
| 2026-05-05 00:41 | 28.70190 | -68.71328 | 35084 ft | 433 kts | 177° |
| 2026-05-05 00:41 | 28.64276 | -68.69978 | 35041 ft | 433 kts | 177° |
| 2026-05-05 00:42 | 28.58355 | -68.68630 | 35064 ft | 434 kts | 177° |
| 2026-05-05 00:42 | 28.52469 | -68.67291 | 35074 ft | 434 kts | 177° |
| 2026-05-05 00:43 | 28.46527 | -68.65941 | 35071 ft | 435 kts | 177° |
| 2026-05-05 00:43 | 28.40586 | -68.64593 | 35066 ft | 436 kts | 177° |
| 2026-05-05 00:44 | 28.34613 | -68.63239 | 35054 ft | 436 kts | 176° |
| 2026-05-05 00:44 | 28.28690 | -68.61898 | 35064 ft | 437 kts | 176° |
| 2026-05-05 00:45 | 28.22704 | -68.60544 | 35067 ft | 438 kts | 176° |
| 2026-05-05 00:45 | 28.16704 | -68.59189 | 35069 ft | 439 kts | 176° |
| 2026-05-05 00:46 | 28.10701 | -68.57834 | 35064 ft | 440 kts | 176° |
| 2026-05-05 00:46 | 28.04719 | -68.56487 | 35060 ft | 440 kts | 175° |
| 2026-05-05 00:47 | 27.98696 | -68.55132 | 35064 ft | 441 kts | 175° |
| 2026-05-05 00:47 | 27.92658 | -68.53774 | 35070 ft | 443 kts | 175° |
| 2026-05-05 00:48 | 27.86612 | -68.52415 | 35056 ft | 444 kts | 174° |
| 2026-05-05 00:48 | 27.80546 | -68.51058 | 35076 ft | 444 kts | 175° |
| 2026-05-05 00:49 | 27.74464 | -68.49702 | 35060 ft | 445 kts | 174° |
| 2026-05-05 00:49 | 27.68381 | -68.48342 | 35069 ft | 446 kts | 174° |
| 2026-05-05 00:50 | 27.62279 | -68.46976 | 35075 ft | 447 kts | 174° |
| 2026-05-05 00:50 | 27.56207 | -68.45622 | 35073 ft | 448 kts | 174° |
| 2026-05-05 00:51 | 27.50083 | -68.44258 | 35049 ft | 448 kts | 174° |
| 2026-05-05 00:51 | 27.43999 | -68.42908 | 35064 ft | 448 kts | 174° |
| 2026-05-05 00:52 | 27.37872 | -68.41555 | 35074 ft | 449 kts | 174° |
| 2026-05-05 00:52 | 27.31736 | -68.40194 | 35070 ft | 449 kts | 174° |
| 2026-05-05 00:53 | 27.25586 | -68.38823 | 35067 ft | 450 kts | 174° |
| 2026-05-05 00:53 | 27.19487 | -68.37469 | 35068 ft | 449 kts | 175° |
| 2026-05-05 00:54 | 27.13340 | -68.36109 | 35067 ft | 450 kts | 175° |
| 2026-05-05 00:54 | 27.07194 | -68.34753 | 35074 ft | 450 kts | 175° |
| 2026-05-05 00:55 | 27.01046 | -68.33396 | 35073 ft | 451 kts | 175° |
| 2026-05-05 00:55 | 26.94921 | -68.32047 | 35068 ft | 451 kts | 175° |
| 2026-05-05 00:56 | 26.88743 | -68.30687 | 35058 ft | 451 kts | 175° |
| 2026-05-05 00:56 | 26.82578 | -68.29331 | 35065 ft | 452 kts | 175° |
| 2026-05-05 00:57 | 26.76398 | -68.27973 | 35072 ft | 453 kts | 175° |
| 2026-05-05 00:57 | 26.70243 | -68.26623 | 35068 ft | 453 kts | 175° |
| 2026-05-05 00:58 | 26.64041 | -68.25264 | 35067 ft | 454 kts | 175° |
| 2026-05-05 00:58 | 26.57824 | -68.23902 | 35058 ft | 454 kts | 176° |
| 2026-05-05 00:59 | 26.51652 | -68.22552 | 35065 ft | 454 kts | 176° |
| 2026-05-05 00:59 | 26.45440 | -68.21195 | 35063 ft | 455 kts | 176° |
| 2026-05-05 01:00 | 26.39231 | -68.19840 | 35066 ft | 455 kts | 176° |
| 2026-05-05 01:00 | 26.33018 | -68.18485 | 35037 ft | 455 kts | 176° |
| 2026-05-05 01:01 | 26.26820 | -68.17135 | 35057 ft | 453 kts | 176° |
| 2026-05-05 01:01 | 26.20626 | -68.15788 | 35072 ft | 453 kts | 176° |
| 2026-05-05 01:02 | 26.14465 | -68.14450 | 35072 ft | 452 kts | 176° |
| 2026-05-05 01:02 | 26.08244 | -68.13100 | 35059 ft | 452 kts | 176° |
| 2026-05-05 01:03 | 26.02100 | -68.11768 | 35073 ft | 452 kts | 176° |
| 2026-05-05 01:03 | 25.95923 | -68.10431 | 35073 ft | 451 kts | 176° |
| 2026-05-05 01:04 | 25.89790 | -68.09104 | 35071 ft | 451 kts | 176° |
| 2026-05-05 01:04 | 25.80550 | -68.07108 | 35071 ft | 451 kts | 176° |
| 2026-05-05 01:05 | 25.74389 | -68.05780 | 35044 ft | 451 kts | 176° |
| 2026-05-05 01:05 | 25.68231 | -68.04453 | 35064 ft | 451 kts | 176° |
| 2026-05-05 01:06 | 25.62071 | -68.03127 | 35076 ft | 451 kts | 176° |
| 2026-05-05 01:06 | 25.55911 | -68.01804 | 35074 ft | 451 kts | 176° |
| 2026-05-05 01:07 | 25.49774 | -68.00486 | 35072 ft | 452 kts | 176° |
| 2026-05-05 01:07 | 25.43597 | -67.99159 | 35051 ft | 452 kts | 176° |
| 2026-05-05 01:08 | 25.37419 | -67.97831 | 35070 ft | 452 kts | 176° |
| 2026-05-05 01:08 | 25.31235 | -67.96505 | 35076 ft | 453 kts | 176° |
| 2026-05-05 01:09 | 25.25026 | -67.95176 | 35073 ft | 454 kts | 176° |
| 2026-05-05 01:09 | 25.18826 | -67.93850 | 35073 ft | 454 kts | 176° |
| 2026-05-05 01:10 | 25.12646 | -67.92530 | 35061 ft | 455 kts | 176° |
| 2026-05-05 01:10 | 25.06431 | -67.91204 | 35075 ft | 456 kts | 176° |
| 2026-05-05 01:11 | 25.00193 | -67.89875 | 35082 ft | 457 kts | 176° |
| 2026-05-05 01:11 | 24.93935 | -67.88542 | 35078 ft | 458 kts | 176° |
| 2026-05-05 01:12 | 24.87667 | -67.87209 | 35077 ft | 459 kts | 176° |
| 2026-05-05 01:12 | 24.81385 | -67.85874 | 35067 ft | 460 kts | 176° |
| 2026-05-05 01:13 | 24.75143 | -67.84548 | 35081 ft | 460 kts | 176° |
| 2026-05-05 01:13 | 24.68847 | -67.83213 | 35079 ft | 461 kts | 176° |
| 2026-05-05 01:14 | 24.62539 | -67.81877 | 35079 ft | 461 kts | 176° |
| 2026-05-05 01:14 | 24.57300 | -67.80768 | 35079 ft | 461 kts | 176° |
| 2026-05-05 01:15 | 24.50997 | -67.79435 | 35074 ft | 461 kts | 176° |
| 2026-05-05 01:15 | 24.44703 | -67.78106 | 35082 ft | 461 kts | 176° |
| 2026-05-05 01:16 | 24.38406 | -67.76778 | 35082 ft | 461 kts | 176° |
| 2026-05-05 01:16 | 24.32105 | -67.75451 | 35081 ft | 461 kts | 176° |
| 2026-05-05 01:17 | 24.25797 | -67.74123 | 35084 ft | 461 kts | 176° |
| 2026-05-05 01:17 | 24.19543 | -67.72805 | 35079 ft | 460 kts | 175° |
| 2026-05-05 01:18 | 24.13246 | -67.71479 | 35088 ft | 460 kts | 176° |
| 2026-05-05 01:18 | 24.06950 | -67.70156 | 35087 ft | 461 kts | 176° |
| 2026-05-05 01:19 | 24.00643 | -67.68833 | 35087 ft | 461 kts | 176° |
| 2026-05-05 01:19 | 23.94344 | -67.67513 | 35087 ft | 461 kts | 176° |
| 2026-05-05 01:20 | 23.88025 | -67.66191 | 35084 ft | 461 kts | 175° |
| 2026-05-05 01:20 | 23.81716 | -67.64871 | 35092 ft | 461 kts | 175° |
| 2026-05-05 01:21 | 23.75409 | -67.63554 | 35090 ft | 462 kts | 175° |
| 2026-05-05 01:21 | 23.69129 | -67.62243 | 35090 ft | 462 kts | 175° |
| 2026-05-05 01:22 | 23.62808 | -67.60925 | 35073 ft | 463 kts | 175° |
| 2026-05-05 01:22 | 23.56486 | -67.59608 | 35086 ft | 462 kts | 175° |
| 2026-05-05 01:23 | 23.50160 | -67.58291 | 35084 ft | 463 kts | 175° |
| 2026-05-05 01:23 | 23.43831 | -67.56975 | 35089 ft | 463 kts | 175° |
| 2026-05-05 01:24 | 23.37487 | -67.55658 | 35091 ft | 463 kts | 175° |
| 2026-05-05 01:24 | 23.31156 | -67.54344 | 35064 ft | 463 kts | 175° |
| 2026-05-05 01:25 | 23.24819 | -67.53030 | 35078 ft | 463 kts | 175° |
| 2026-05-05 01:25 | 23.18521 | -67.51726 | 35094 ft | 464 kts | 175° |
| 2026-05-05 01:26 | 23.12164 | -67.50411 | 35092 ft | 465 kts | 175° |
| 2026-05-05 01:26 | 23.05809 | -67.49097 | 35098 ft | 466 kts | 175° |
| 2026-05-05 01:27 | 22.99432 | -67.47781 | 35095 ft | 466 kts | 175° |
| 2026-05-05 01:27 | 22.93060 | -67.46466 | 35088 ft | 467 kts | 175° |
| 2026-05-05 01:28 | 22.86675 | -67.45150 | 35091 ft | 467 kts | 175° |
| 2026-05-05 01:28 | 22.80332 | -67.43844 | 35090 ft | 467 kts | 175° |
| 2026-05-05 01:29 | 22.73950 | -67.42530 | 35088 ft | 466 kts | 175° |
| 2026-05-05 01:29 | 22.67556 | -67.41217 | 35082 ft | 466 kts | 175° |
| 2026-05-05 01:30 | 22.61183 | -67.39908 | 35097 ft | 466 kts | 175° |
| 2026-05-05 01:30 | 22.54810 | -67.38601 | 35094 ft | 466 kts | 175° |
| 2026-05-05 01:31 | 22.48435 | -67.37295 | 35092 ft | 466 kts | 175° |
| 2026-05-05 01:31 | 22.42053 | -67.35989 | 35092 ft | 466 kts | 175° |
| 2026-05-05 01:32 | 22.35712 | -67.34692 | 35080 ft | 466 kts | 174° |
| 2026-05-05 01:32 | 22.29341 | -67.33392 | 35089 ft | 466 kts | 174° |
| 2026-05-05 01:33 | 22.22953 | -67.32088 | 35096 ft | 467 kts | 174° |
| 2026-05-05 01:33 | 22.16558 | -67.30787 | 35093 ft | 467 kts | 174° |
| 2026-05-05 01:34 | 22.10160 | -67.29491 | 35090 ft | 468 kts | 174° |
| 2026-05-05 01:34 | 22.03792 | -67.28202 | 35088 ft | 468 kts | 174° |
| 2026-05-05 01:35 | 21.97384 | -67.26907 | 35091 ft | 468 kts | 174° |
| 2026-05-05 01:35 | 21.90978 | -67.25613 | 35093 ft | 469 kts | 174° |
| 2026-05-05 01:36 | 21.84548 | -67.24316 | 35094 ft | 469 kts | 174° |
| 2026-05-05 01:36 | 21.78166 | -67.23030 | 35098 ft | 469 kts | 174° |
| 2026-05-05 01:37 | 21.71739 | -67.21736 | 35088 ft | 469 kts | 174° |
| 2026-05-05 01:37 | 21.65313 | -67.20450 | 35090 ft | 469 kts | 174° |
| 2026-05-05 01:38 | 21.58914 | -67.19180 | 35095 ft | 469 kts | 174° |
| 2026-05-05 01:38 | 21.52479 | -67.17988 | 35094 ft | 469 kts | 175° |
| 2026-05-05 01:39 | 21.46046 | -67.16803 | 35083 ft | 469 kts | 174° |
| 2026-05-05 01:39 | 21.39614 | -67.15606 | 35089 ft | 469 kts | 174° |
| 2026-05-05 01:40 | 21.33172 | -67.14405 | 35096 ft | 469 kts | 174° |
| 2026-05-05 01:40 | 21.26732 | -67.13202 | 35093 ft | 469 kts | 173° |
| 2026-05-05 01:41 | 21.20379 | -67.11662 | 35093 ft | 471 kts | 170° |
| 2026-05-05 01:41 | 21.14011 | -67.09916 | 35079 ft | 472 kts | 169° |
| 2026-05-05 01:42 | 21.07644 | -67.08185 | 35088 ft | 472 kts | 170° |
| 2026-05-05 01:42 | 21.01267 | -67.06490 | 35094 ft | 472 kts | 170° |
| 2026-05-05 01:43 | 20.94920 | -67.04820 | 35093 ft | 472 kts | 170° |
| 2026-05-05 01:43 | 20.88524 | -67.03141 | 35093 ft | 473 kts | 170° |
| 2026-05-05 01:44 | 20.82118 | -67.01459 | 35085 ft | 473 kts | 170° |
| 2026-05-05 01:44 | 20.75724 | -66.99780 | 35092 ft | 474 kts | 170° |
| 2026-05-05 01:45 | 20.69308 | -66.98097 | 35091 ft | 474 kts | 170° |
| 2026-05-05 01:45 | 20.62936 | -66.96427 | 35090 ft | 475 kts | 170° |
| 2026-05-05 01:46 | 20.56511 | -66.94745 | 35087 ft | 475 kts | 170° |
| 2026-05-05 01:46 | 20.50084 | -66.93063 | 35075 ft | 475 kts | 169° |
| 2026-05-05 01:47 | 20.43694 | -66.91393 | 35089 ft | 475 kts | 169° |
| 2026-05-05 01:47 | 20.37260 | -66.89713 | 35087 ft | 475 kts | 169° |
| 2026-05-05 01:48 | 20.30831 | -66.88036 | 35086 ft | 475 kts | 169° |
| 2026-05-05 01:48 | 20.24402 | -66.86359 | 35087 ft | 476 kts | 169° |
| 2026-05-05 01:49 | 20.17961 | -66.84681 | 35074 ft | 476 kts | 169° |
| 2026-05-05 01:49 | 20.11557 | -66.83014 | 34814 ft | 480 kts | 169° |
| 2026-05-05 01:50 | 20.08291 | -66.82165 | 34226 ft | 481 kts | 169° |
| 2026-05-05 01:50 | 20.05053 | -66.81322 | 33479 ft | 481 kts | 169° |
| 2026-05-05 01:50 | 20.01794 | -66.80475 | 32744 ft | 481 kts | 168° |
| 2026-05-05 01:50 | 19.98565 | -66.79491 | 31994 ft | 484 kts | 162° |
| 2026-05-05 01:51 | 19.95478 | -66.78028 | 31194 ft | 488 kts | 155° |
| 2026-05-05 01:51 | 19.92432 | -66.76397 | 30377 ft | 490 kts | 154° |
| 2026-05-05 01:51 | 19.89392 | -66.74735 | 29440 ft | 493 kts | 154° |
| 2026-05-05 01:51 | 19.86345 | -66.73072 | 28528 ft | 493 kts | 154° |
| 2026-05-05 01:52 | 19.83291 | -66.71422 | 27607 ft | 492 kts | 155° |
| 2026-05-05 01:52 | 19.80237 | -66.69790 | 26675 ft | 492 kts | 155° |
| 2026-05-05 01:52 | 19.77182 | -66.68171 | 25959 ft | 487 kts | 155° |
| 2026-05-05 01:52 | 19.74206 | -66.66600 | 25314 ft | 481 kts | 155° |
| 2026-05-05 01:53 | 19.71223 | -66.65030 | 24711 ft | 475 kts | 155° |
| 2026-05-05 01:53 | 19.68313 | -66.63499 | 24506 ft | 459 kts | 155° |
| 2026-05-05 01:53 | 19.65469 | -66.62003 | 23949 ft | 454 kts | 155° |
| 2026-05-05 01:53 | 19.62659 | -66.60526 | 23328 ft | 449 kts | 155° |
| 2026-05-05 01:54 | 19.59873 | -66.59061 | 22624 ft | 445 kts | 155° |
| 2026-05-05 01:54 | 19.57110 | -66.57609 | 21970 ft | 442 kts | 155° |
| 2026-05-05 01:54 | 19.54359 | -66.56163 | 21323 ft | 438 kts | 155° |
| 2026-05-05 01:54 | 19.51643 | -66.54736 | 20685 ft | 436 kts | 156° |
| 2026-05-05 01:55 | 19.48929 | -66.53311 | 20039 ft | 434 kts | 156° |
| 2026-05-05 01:55 | 19.46223 | -66.51891 | 19399 ft | 433 kts | 156° |
| 2026-05-05 01:55 | 19.43520 | -66.50473 | 18757 ft | 433 kts | 156° |
| 2026-05-05 01:55 | 19.40852 | -66.49073 | 18085 ft | 433 kts | 156° |
| 2026-05-05 01:56 | 19.38174 | -66.47669 | 17399 ft | 431 kts | 156° |
| 2026-05-05 01:56 | 19.35484 | -66.46259 | 16767 ft | 428 kts | 156° |
| 2026-05-05 01:56 | 19.32821 | -66.44863 | 16127 ft | 425 kts | 156° |
| 2026-05-05 01:56 | 19.30170 | -66.43474 | 15510 ft | 422 kts | 154° |
| 2026-05-05 01:57 | 19.27540 | -66.42095 | 14870 ft | 419 kts | 155° |
| 2026-05-05 01:57 | 19.24933 | -66.40731 | 14253 ft | 416 kts | 155° |
| 2026-05-05 01:57 | 19.22373 | -66.39391 | 13597 ft | 414 kts | 155° |
| 2026-05-05 01:57 | 19.19803 | -66.38047 | 12944 ft | 410 kts | 154° |
| 2026-05-05 01:58 | 19.17258 | -66.36715 | 12325 ft | 406 kts | 154° |
| 2026-05-05 01:58 | 19.14743 | -66.35401 | 11721 ft | 401 kts | 154° |
| 2026-05-05 01:58 | 19.12266 | -66.34124 | 11400 ft | 386 kts | 156° |
| 2026-05-05 01:58 | 19.09799 | -66.33224 | 11157 ft | 367 kts | 168° |
| 2026-05-05 01:59 | 19.07354 | -66.32748 | 10994 ft | 349 kts | 170° |
| 2026-05-05 01:59 | 19.05020 | -66.32301 | 10834 ft | 333 kts | 170° |
| 2026-05-05 01:59 | 19.02794 | -66.31865 | 10689 ft | 318 kts | 170° |
| 2026-05-05 01:59 | 19.00660 | -66.31443 | 10554 ft | 305 kts | 169° |
| 2026-05-05 02:00 | 18.98618 | -66.31036 | 10429 ft | 293 kts | 169° |
| 2026-05-05 02:00 | 18.96647 | -66.30641 | 10306 ft | 285 kts | 169° |
| 2026-05-05 02:00 | 18.95366 | -66.30384 | 10237 ft | 280 kts | 169° |
| 2026-05-05 02:00 | 18.93481 | -66.30006 | 10125 ft | 272 kts | 169° |
| 2026-05-05 02:01 | 18.91613 | -66.29631 | 9741 ft | 276 kts | 169° |
| 2026-05-05 02:01 | 18.89162 | -66.29138 | 9613 ft | 264 kts | 169° |
| 2026-05-05 02:01 | 18.87975 | -66.28899 | 9549 ft | 258 kts | 169° |
| 2026-05-05 02:01 | 18.86226 | -66.28548 | 9488 ft | 248 kts | 169° |
| 2026-05-05 02:02 | 18.84568 | -66.28214 | 9320 ft | 244 kts | 169° |
| 2026-05-05 02:02 | 18.82908 | -66.27881 | 9079 ft | 242 kts | 169° |
| 2026-05-05 02:02 | 18.81258 | -66.27549 | 8845 ft | 240 kts | 169° |
| 2026-05-05 02:02 | 18.79632 | -66.27222 | 8642 ft | 237 kts | 169° |
| 2026-05-05 02:03 | 18.78004 | -66.26895 | 8375 ft | 237 kts | 169° |
| 2026-05-05 02:03 | 18.76398 | -66.26572 | 8157 ft | 234 kts | 168° |
| 2026-05-05 02:03 | 18.74805 | -66.26252 | 7953 ft | 231 kts | 168° |
| 2026-05-05 02:03 | 18.73223 | -66.25934 | 7671 ft | 233 kts | 168° |
| 2026-05-05 02:04 | 18.71616 | -66.25611 | 7280 ft | 239 kts | 167° |
| 2026-05-05 02:04 | 18.69911 | -66.25267 | 6725 ft | 253 kts | 168° |
| 2026-05-05 02:04 | 18.68172 | -66.24918 | 6382 ft | 257 kts | 168° |
| 2026-05-05 02:04 | 18.66413 | -66.24565 | 6100 ft | 256 kts | 168° |
| 2026-05-05 02:05 | 18.64616 | -66.24204 | 5325 ft | 270 kts | 168° |
| 2026-05-05 02:05 | 18.62748 | -66.23829 | 4572 ft | 278 kts | 167° |
| 2026-05-05 02:05 | 18.60823 | -66.23442 | 3802 ft | 284 kts | 167° |
| 2026-05-05 02:05 | 18.58876 | -66.23129 | 3031 ft | 291 kts | 177° |
| 2026-05-05 02:06 | 18.56878 | -66.23300 | 2661 ft | 282 kts | 183° |
| 2026-05-05 02:06 | 18.55010 | -66.23119 | 2493 ft | 261 kts | 161° |
| 2026-05-05 02:06 | 18.53342 | -66.22548 | 2360 ft | 245 kts | 162° |
| 2026-05-05 02:06 | 18.51747 | -66.22081 | 2277 ft | 229 kts | 164° |
| 2026-05-05 02:07 | 18.50273 | -66.21687 | 2291 ft | 209 kts | 164° |
| 2026-05-05 02:07 | 18.48911 | -66.21338 | 2268 ft | 192 kts | 164° |
| 2026-05-05 02:07 | 18.47631 | -66.21015 | 2297 ft | 187 kts | 165° |
| 2026-05-05 02:07 | 18.46369 | -66.20698 | 2304 ft | 187 kts | 165° |
| 2026-05-05 02:08 | 18.45105 | -66.20336 | 2289 ft | 189 kts | 154° |
| 2026-05-05 02:08 | 18.44123 | -66.19452 | 2303 ft | 186 kts | 126° |
| 2026-05-05 02:08 | 18.43578 | -66.18220 | 2283 ft | 187 kts | 104° |
| 2026-05-05 02:08 | 18.43458 | -66.16864 | 2301 ft | 190 kts | 96° |
| 2026-05-05 02:09 | 18.43401 | -66.15493 | 2283 ft | 181 kts | 95° |
| 2026-05-05 02:09 | 18.43385 | -66.14217 | 2265 ft | 169 kts | 94° |
| 2026-05-05 02:09 | 18.43380 | -66.13004 | 2129 ft | 164 kts | 93° |
| 2026-05-05 02:09 | 18.43376 | -66.11788 | 1887 ft | 165 kts | 93° |
| 2026-05-05 02:10 | 18.43374 | -66.10590 | 1680 ft | 161 kts | 93° |
| 2026-05-05 02:10 | 18.43371 | -66.09410 | 1469 ft | 161 kts | 93° |
| 2026-05-05 02:10 | 18.43368 | -66.08213 | 1256 ft | 164 kts | 92° |
| 2026-05-05 02:10 | 18.43365 | -66.07016 | 1057 ft | 163 kts | 91° |
| 2026-05-05 02:11 | 18.43364 | -66.05825 | 840 ft | 164 kts | 91° |
| 2026-05-05 02:11 | 18.43335 | -66.04605 | 628 ft | 168 kts | 91° |
| 2026-05-05 02:11 | 18.43340 | -66.03374 | 353 ft | 169 kts | 88° |
| 2026-05-05 02:11 | 18.43352 | -66.02155 | 189 ft | 165 kts | 90° |
| 2026-05-05 02:12 | 18.43354 | -66.00993 | 20 ft | 160 kts | 89° |
| 2026-05-05 02:12 | 18.43352 | -65.99414 | 16 ft | 47 kts | 90° |
| 2026-05-05 02:12 | 18.43352 | -65.99141 | 16 ft | 25 kts | 90° |
| 2026-05-05 02:13 | 18.43429 | -65.99079 | 17 ft | 16 kts | 345° |
| 2026-05-05 02:13 | 18.43462 | -65.99179 | 16 ft | 16 kts | 269° |
| 2026-05-05 02:13 | 18.43463 | -65.99291 | 16 ft | 15 kts | 272° |
| 2026-05-05 02:13 | 18.43463 | -65.99398 | 16 ft | 14 kts | 269° |
| 2026-05-05 02:14 | 18.43463 | -65.99500 | 16 ft | 14 kts | 270° |
| 2026-05-05 02:14 | 18.43529 | -65.99549 | 16 ft | 13 kts | 351° |
| 2026-05-05 02:14 | 18.43559 | -65.99594 | 16 ft | 7 kts | 278° |
| 2026-05-05 02:14 | 18.43561 | -65.99646 | 16 ft | 7 kts | 272° |
| 2026-05-05 02:15 | 18.43562 | -65.99698 | 16 ft | 7 kts | 270° |
| 2026-05-05 02:15 | 18.43563 | -65.99751 | 16 ft | 8 kts | 270° |
| 2026-05-05 02:15 | 18.43562 | -65.99829 | 16 ft | 15 kts | 270° |
| 2026-05-05 02:15 | 18.43562 | -65.99946 | 16 ft | 16 kts | 271° |
| 2026-05-05 02:16 | 18.43562 | -66.00061 | 16 ft | 15 kts | 269° |
| 2026-05-05 02:16 | 18.43591 | -66.00121 | 16 ft | 9 kts | 346° |
| 2026-05-05 02:16 | 18.43620 | -66.00131 | 16 ft | 1 kts | 343° |
| 2026-05-05 02:16 | 18.43623 | -66.00132 | 16 ft | 0 kts | 343° |